Pagrindinis puslapis
METAR-TAF:

METAR-TAF

Oro uostai :

Karlstadas, Švedija

platuma: 59-26-41N, ilguma: 013-20-15E, Aukštis: 107 m

Dabartinis oras

Ataskaita buvo paskelbta 44 minutes, ne 02:20 UTC
Vėjas 2 kt iš Pietų
Temperatūra 12°C
Drėgmė 88%
Slėgis 1018 hPa
Matomumas 10 km arba daugiau

METAR: ESOK 170220Z AUTO 18002KT 9999 NCD 12/10 Q1018

Laikas: 05:04 (03:04 UTC)

Prognozė

Ataskaita buvo paskelbta 12 valandos ir 34 minutes, ne 14:30 UTC
Prognozė galioja nuo 16 metu 15 UTC su 16 metu 17 UTC
Vėjas 12 kt iš Pietų
Matomumas 10 km arba daugiau
nėra debesų žemiau 1500 m ir nėra kamuolinių lietaus debesų

TAF: ESOK 161430Z 1615/1617 18012KT CAVOK

Orai ataskaitas ir orų prognozės (METAR, TAF).

turimą stotys yra geltonos ir raudonos taškus žemėlapyje.

Perkelti pele per norėdami pamatyti stoties vardą.

Tada spustelėkite, norėdami matyti oro stebėjimo ir prognozės.

Norėdami pakeisti žemėlapį: spustelėkite ant žalios mygtukų su juodo kryžiaus žemyn,; žalią mygtuką su brūkšneliu, jei norite nutolinti; arba žalių rodyklių gretimoms žemėlapius.


METAR-TAF: